sensor_id;sensor_type;location;lat;lon;timestamp;P1;durP1;ratioP1;P2;durP2;ratioP2
7585;SDS011;12459;42.646;23.292;2023-04-20T00:00:47;13.40;;;12.70;;
7585;SDS011;12459;42.646;23.292;2023-04-20T00:15:48;14.07;;;13.37;;
7585;SDS011;12459;42.646;23.292;2023-04-20T00:30:50;13.10;;;12.40;;
7585;SDS011;12459;42.646;23.292;2023-04-20T00:45:52;13.53;;;12.83;;
7585;SDS011;12459;42.646;23.292;2023-04-20T01:00:54;13.37;;;12.67;;
7585;SDS011;12459;42.646;23.292;2023-04-20T01:15:57;12.97;;;12.27;;
7585;SDS011;12459;42.646;23.292;2023-04-20T01:31:01;12.33;;;11.67;;
7585;SDS011;12459;42.646;23.292;2023-04-20T01:46:04;9.10;;;8.60;;
7585;SDS011;12459;42.646;23.292;2023-04-20T02:01:06;14.07;;;13.37;;
7585;SDS011;12459;42.646;23.292;2023-04-20T02:16:08;12.20;;;11.57;;
7585;SDS011;12459;42.646;23.292;2023-04-20T02:31:10;10.77;;;10.17;;
7585;SDS011;12459;42.646;23.292;2023-04-20T02:46:12;12.87;;;12.17;;
7585;SDS011;12459;42.646;23.292;2023-04-20T03:01:14;13.83;;;13.13;;
7585;SDS011;12459;42.646;23.292;2023-04-20T03:16:16;10.43;;;9.83;;
7585;SDS011;12459;42.646;23.292;2023-04-20T03:31:18;10.53;;;9.93;;
7585;SDS011;12459;42.646;23.292;2023-04-20T03:46:20;12.37;;;11.70;;
7585;SDS011;12459;42.646;23.292;2023-04-20T04:01:23;13.37;;;12.67;;
7585;SDS011;12459;42.646;23.292;2023-04-20T04:16:25;11.97;;;11.37;;
7585;SDS011;12459;42.646;23.292;2023-04-20T04:31:27;12.47;;;11.77;;
7585;SDS011;12459;42.646;23.292;2023-04-20T04:46:28;12.87;;;12.17;;
7585;SDS011;12459;42.646;23.292;2023-04-20T05:01:30;15.17;;;14.37;;
7585;SDS011;12459;42.646;23.292;2023-04-20T05:16:32;13.17;;;12.47;;
7585;SDS011;12459;42.646;23.292;2023-04-20T05:31:33;12.50;;;11.80;;
7585;SDS011;12459;42.646;23.292;2023-04-20T05:46:35;12.13;;;11.53;;
7585;SDS011;12459;42.646;23.292;2023-04-20T06:01:37;11.00;;;10.40;;
7585;SDS011;12459;42.646;23.292;2023-04-20T06:16:39;12.83;;;12.13;;
7585;SDS011;12459;42.646;23.292;2023-04-20T06:31:41;12.77;;;12.07;;
7585;SDS011;12459;42.646;23.292;2023-04-20T06:46:43;11.30;;;10.70;;
7585;SDS011;12459;42.646;23.292;2023-04-20T07:01:44;13.53;;;12.83;;
7585;SDS011;12459;42.646;23.292;2023-04-20T07:16:46;13.33;;;12.63;;
7585;SDS011;12459;42.646;23.292;2023-04-20T07:31:51;12.20;;;11.57;;
7585;SDS011;12459;42.646;23.292;2023-04-20T07:46:53;14.60;;;13.83;;
7585;SDS011;12459;42.646;23.292;2023-04-20T08:01:58;15.13;;;14.33;;
7585;SDS011;12459;42.646;23.292;2023-04-20T08:17:01;15.90;;;15.10;;
7585;SDS011;12459;42.646;23.292;2023-04-20T08:32:03;16.70;;;15.90;;
7585;SDS011;12459;42.646;23.292;2023-04-20T08:47:05;16.87;;;16.03;;
7585;SDS011;12459;42.646;23.292;2023-04-20T09:02:09;13.03;;;12.33;;
7585;SDS011;12459;42.646;23.292;2023-04-20T09:17:15;14.60;;;13.87;;
7585;SDS011;12459;42.646;23.292;2023-04-20T09:32:24;16.50;;;15.70;;
7585;SDS011;12459;42.646;23.292;2023-04-20T09:47:26;18.53;;;17.63;;
7585;SDS011;12459;42.646;23.292;2023-04-20T10:02:30;17.20;;;16.37;;
7585;SDS011;12459;42.646;23.292;2023-04-20T10:17:32;17.83;;;16.93;;
7585;SDS011;12459;42.646;23.292;2023-04-20T10:32:34;20.23;;;19.23;;
7585;SDS011;12459;42.646;23.292;2023-04-20T10:47:36;19.00;;;18.07;;
7585;SDS011;12459;42.646;23.292;2023-04-20T11:02:47;19.47;;;18.47;;
7585;SDS011;12459;42.646;23.292;2023-04-20T11:17:53;20.13;;;19.13;;
7585;SDS011;12459;42.646;23.292;2023-04-20T11:32:54;23.80;;;22.70;;
7585;SDS011;12459;42.646;23.292;2023-04-20T11:47:56;23.77;;;22.67;;
7585;SDS011;12459;42.646;23.292;2023-04-20T12:02:58;23.93;;;22.80;;
7585;SDS011;12459;42.646;23.292;2023-04-20T12:18:02;18.60;;;17.70;;
7585;SDS011;12459;42.646;23.292;2023-04-20T12:33:04;21.37;;;20.37;;
7585;SDS011;12459;42.646;23.292;2023-04-20T12:48:06;20.40;;;19.40;;
7585;SDS011;12459;42.646;23.292;2023-04-20T13:03:08;18.83;;;17.93;;
7585;SDS011;12459;42.646;23.292;2023-04-20T13:18:10;22.50;;;21.40;;
7585;SDS011;12459;42.646;23.292;2023-04-20T13:33:13;18.30;;;17.40;;
7585;SDS011;12459;42.646;23.292;2023-04-20T13:48:15;21.07;;;20.07;;
7585;SDS011;12459;42.646;23.292;2023-04-20T14:03:17;20.40;;;19.40;;
7585;SDS011;12459;42.646;23.292;2023-04-20T14:18:20;19.30;;;18.37;;
7585;SDS011;12459;42.646;23.292;2023-04-20T14:33:22;18.90;;;18.00;;
7585;SDS011;12459;42.646;23.292;2023-04-20T14:48:24;15.27;;;14.47;;
7585;SDS011;12459;42.646;23.292;2023-04-20T15:03:25;17.83;;;16.93;;
7585;SDS011;12459;42.646;23.292;2023-04-20T15:18:27;21.37;;;20.37;;
7585;SDS011;12459;42.646;23.292;2023-04-20T15:33:29;19.07;;;18.17;;
7585;SDS011;12459;42.646;23.292;2023-04-20T15:48:31;19.87;;;18.87;;
7585;SDS011;12459;42.646;23.292;2023-04-20T16:03:32;13.77;;;13.07;;
7585;SDS011;12459;42.646;23.292;2023-04-20T16:18:34;17.67;;;16.80;;
7585;SDS011;12459;42.646;23.292;2023-04-20T16:33:36;17.80;;;16.90;;
7585;SDS011;12459;42.646;23.292;2023-04-20T16:48:38;15.93;;;15.13;;
7585;SDS011;12459;42.646;23.292;2023-04-20T17:03:40;14.73;;;13.97;;
7585;SDS011;12459;42.646;23.292;2023-04-20T17:18:42;16.43;;;15.63;;
7585;SDS011;12459;42.646;23.292;2023-04-20T17:33:44;15.33;;;14.53;;
7585;SDS011;12459;42.646;23.292;2023-04-20T17:48:45;16.90;;;16.07;;
7585;SDS011;12459;42.646;23.292;2023-04-20T18:03:47;13.90;;;13.20;;
7585;SDS011;12459;42.646;23.292;2023-04-20T18:33:52;15.00;;;14.20;;
7585;SDS011;12459;42.646;23.292;2023-04-20T18:48:54;15.60;;;14.80;;
7585;SDS011;12459;42.646;23.292;2023-04-20T19:03:56;16.83;;;16.00;;
7585;SDS011;12459;42.646;23.292;2023-04-20T19:18:58;20.30;;;19.30;;
7585;SDS011;12459;42.646;23.292;2023-04-20T19:49:03;15.27;;;14.47;;
7585;SDS011;12459;42.646;23.292;2023-04-20T20:04:04;13.83;;;13.13;;
7585;SDS011;12459;42.646;23.292;2023-04-20T20:19:06;15.57;;;14.77;;
7585;SDS011;12459;42.646;23.292;2023-04-20T20:34:09;17.93;;;17.03;;
7585;SDS011;12459;42.646;23.292;2023-04-20T20:49:10;14.53;;;13.83;;
7585;SDS011;12459;42.646;23.292;2023-04-20T21:04:12;16.27;;;15.47;;
7585;SDS011;12459;42.646;23.292;2023-04-20T21:19:14;16.67;;;15.87;;
7585;SDS011;12459;42.646;23.292;2023-04-20T21:34:16;11.87;;;11.27;;
7585;SDS011;12459;42.646;23.292;2023-04-20T21:49:18;17.40;;;16.53;;
7585;SDS011;12459;42.646;23.292;2023-04-20T22:04:20;16.70;;;15.90;;
7585;SDS011;12459;42.646;23.292;2023-04-20T22:19:22;13.13;;;12.43;;
7585;SDS011;12459;42.646;23.292;2023-04-20T22:34:24;15.87;;;15.07;;
7585;SDS011;12459;42.646;23.292;2023-04-20T22:49:25;15.40;;;14.60;;
7585;SDS011;12459;42.646;23.292;2023-04-20T23:04:27;15.33;;;14.53;;
7585;SDS011;12459;42.646;23.292;2023-04-20T23:19:29;12.77;;;12.07;;
7585;SDS011;12459;42.646;23.292;2023-04-20T23:34:33;15.50;;;14.70;;
7585;SDS011;12459;42.646;23.292;2023-04-20T23:49:34;12.40;;;11.73;;
